OH88 weather

Roberts Airport
London, Ohio, United States

Public forecast

Using degrees Fahrenheit for public forecast. Weather courtesy of forecast.io.

METAR (pilot weather report)

Closest report is Madison County Airport, 4.8 nm (8.9 km) N. Retrieved 2019/05/21 10:35 UTC (14 minutes ago):

KUYF 211035Z AUTO 04007KT 10SM BKN027 08/07 A3012 RMK AO2

TAF (pilot weather forecast)

Closest forecast is Rickenbacker International Airport, 25.1 nm (46.5 km) E. Retrieved 2019/05/21 06:58 UTC (4 hours ago):

TAF KLCK 210536Z 2106/2206 02006KT P6SM FEW030 BKN250 FM211400 07007KT P6SM BKN120 FM212300 06009KT P6SM SCT100